< Typhoon 199127 1991 Season Typhoon 199129 >
Typhoon 199128 (YURI)
General InformationTrack Information on Google MapsDetailed Wind InformationList of All Images || Disaster Info.ResourceGoogle EarthGE AnimationAtom FeedGeoJSON
Detalied Best Track (Time Zone = UTC)
Year Month Day Hour Lat. Long. Pressure (hPa) Wind (kt) Class Image Chart
1991 11 22 00 4.2 166.1 1004 0 2 Image Chart
1991 11 22 06 4.4 166.0 1002 0 2 Image Chart
1991 11 22 12 4.5 165.9 1002 0 2 Image Chart
1991 11 22 18 4.6 165.9 1002 0 2 Image Chart
1991 11 23 00 4.7 165.8 1000 0 2 Image Chart
1991 11 23 06 4.8 165.8 996 35 3 Image Chart
1991 11 23 12 5.0 165.7 992 40 3 Image Chart
1991 11 23 18 5.3 165.5 990 45 3 Image Chart
1991 11 24 00 5.5 165.3 980 55 4 Image Chart
1991 11 24 06 6.1 164.2 975 60 4 Image Chart
1991 11 24 12 6.4 162.7 970 65 5 Image Chart
1991 11 24 18 6.8 161.3 965 70 5 Image Chart
1991 11 25 00 7.3 159.9 960 75 5 Image Chart
1991 11 25 06 7.6 158.3 955 75 5 Image Chart
1991 11 25 12 8.1 156.6 950 80 5 Image Chart
1991 11 25 18 8.7 155.1 945 85 5 Image Chart
1991 11 26 00 9.1 153.3 930 95 5 Image Chart
1991 11 26 06 9.4 151.5 915 105 5 Image Chart
1991 11 26 12 9.7 149.7 910 110 5 Image Chart
1991 11 26 18 10.0 148.3 900 115 5 Image Chart
1991 11 27 00 10.7 146.8 895 120 5 Image Chart
1991 11 27 06 11.6 145.5 895 120 5 Image Chart
1991 11 27 12 12.5 144.0 900 115 5 Image Chart
1991 11 27 18 13.2 142.6 900 115 5 Image Chart
1991 11 28 00 14.2 141.5 905 110 5 Image Chart
1991 11 28 06 15.0 140.5 910 105 5 Image Chart
1991 11 28 12 16.0 139.8 910 105 5 Image Chart
1991 11 28 18 16.9 139.2 915 100 5 Image Chart
1991 11 29 00 17.9 138.8 915 100 5 Image Chart
1991 11 29 06 18.7 138.9 920 95 5 Image Chart
1991 11 29 12 19.5 139.1 925 95 5 Image Chart
1991 11 29 18 20.6 139.7 930 90 5 Image Chart
1991 11 30 00 21.2 140.5 945 80 5 Image Chart
1991 11 30 06 22.2 142.2 955 75 5 Image Chart
1991 11 30 12 23.5 144.2 960 75 5 Image Chart
1991 11 30 18 25.3 146.3 965 70 5 Image Chart
1991 12 1 00 27.5 148.0 970 65 5 Image Chart
1991 12 1 06 30.0 150.6 975 60 4 Image Chart
1991 12 1 12 32.3 154.2 980 55 4 Image Chart
1991 12 1 18 34.0 157.0 980 0 6 Image Chart
1991 12 2 00 35.0 159.0 976 0 6 Image Chart
1991 12 2 06 36.0 162.0 976 0 6 Image Chart
1991 12 2 12 37.0 166.0 976 0 6 Image Chart
1991 12 2 18 38.0 170.0 972 0 6 Image Chart
1991 12 3 00 39.0 174.0 972 0 6 Image Chart
1991 12 3 06 41.0 179.0 972 0 6 Image Chart
1991 12 3 12 43.0 183.0 976 0 6 Image Chart
Japan Meteorological Agency Best Track Data | Correction Date : 1992-01-04
< Typhoon 199127 1991 Season Typhoon 199129 >

Help